sensor_id;sensor_type;location;lat;lon;timestamp;P1;durP1;ratioP1;P2;durP2;ratioP2
4517;SDS011;2271;49.464;11.070;2022-09-17T00:00:46;2.05;;;0.43;;
4517;SDS011;2271;49.464;11.070;2022-09-17T00:03:13;3.88;;;0.70;;
4517;SDS011;2271;49.464;11.070;2022-09-17T00:05:39;4.55;;;0.75;;
4517;SDS011;2271;49.464;11.070;2022-09-17T00:08:06;0.68;;;0.50;;
4517;SDS011;2271;49.464;11.070;2022-09-17T00:10:37;0.63;;;0.55;;
4517;SDS011;2271;49.464;11.070;2022-09-17T00:13:06;1.25;;;0.50;;
4517;SDS011;2271;49.464;11.070;2022-09-17T00:15:32;0.60;;;0.60;;
4517;SDS011;2271;49.464;11.070;2022-09-17T00:18:07;0.95;;;0.95;;
4517;SDS011;2271;49.464;11.070;2022-09-17T00:20:37;1.02;;;0.63;;
4517;SDS011;2271;49.464;11.070;2022-09-17T00:23:07;2.10;;;0.52;;
4517;SDS011;2271;49.464;11.070;2022-09-17T00:25:36;0.82;;;0.60;;
4517;SDS011;2271;49.464;11.070;2022-09-17T00:28:02;0.70;;;0.70;;
4517;SDS011;2271;49.464;11.070;2022-09-17T00:30:28;3.05;;;1.10;;
4517;SDS011;2271;49.464;11.070;2022-09-17T00:32:54;0.80;;;0.60;;
4517;SDS011;2271;49.464;11.070;2022-09-17T00:35:25;1.13;;;0.80;;
4517;SDS011;2271;49.464;11.070;2022-09-17T00:37:51;2.05;;;0.85;;
4517;SDS011;2271;49.464;11.070;2022-09-17T00:40:18;1.40;;;0.80;;
4517;SDS011;2271;49.464;11.070;2022-09-17T00:42:44;0.80;;;0.80;;
4517;SDS011;2271;49.464;11.070;2022-09-17T00:45:11;2.03;;;0.70;;
4517;SDS011;2271;49.464;11.070;2022-09-17T00:47:41;3.17;;;0.88;;
4517;SDS011;2271;49.464;11.070;2022-09-17T00:50:16;2.30;;;1.00;;
4517;SDS011;2271;49.464;11.070;2022-09-17T00:55:20;1.27;;;0.82;;
4517;SDS011;2271;49.464;11.070;2022-09-17T00:57:51;2.97;;;1.05;;
4517;SDS011;2271;49.464;11.070;2022-09-17T01:00:19;2.42;;;1.10;;
4517;SDS011;2271;49.464;11.070;2022-09-17T01:02:46;2.15;;;1.13;;
4517;SDS011;2271;49.464;11.070;2022-09-17T01:05:12;4.28;;;1.40;;
4517;SDS011;2271;49.464;11.070;2022-09-17T01:13:19;1.73;;;1.40;;
4517;SDS011;2271;49.464;11.070;2022-09-17T01:18:59;3.63;;;1.30;;
4517;SDS011;2271;49.464;11.070;2022-09-17T01:21:45;6.13;;;1.80;;
4517;SDS011;2271;49.464;11.070;2022-09-17T01:24:38;2.60;;;2.10;;
4517;SDS011;2271;49.464;11.070;2022-09-17T01:30:16;1.83;;;1.65;;
4517;SDS011;2271;49.464;11.070;2022-09-17T01:38:39;6.13;;;1.95;;
4517;SDS011;2271;49.464;11.070;2022-09-17T01:47:08;4.13;;;1.60;;
4517;SDS011;2271;49.464;11.070;2022-09-17T01:49:46;3.35;;;2.17;;
4517;SDS011;2271;49.464;11.070;2022-09-17T01:52:15;4.05;;;2.17;;
4517;SDS011;2271;49.464;11.070;2022-09-17T01:54:43;5.88;;;2.25;;
4517;SDS011;2271;49.464;11.070;2022-09-17T01:59:52;3.42;;;1.85;;
4517;SDS011;2271;49.464;11.070;2022-09-17T02:05:02;3.83;;;1.65;;
4517;SDS011;2271;49.464;11.070;2022-09-17T02:07:32;14.32;;;2.35;;
4517;SDS011;2271;49.464;11.070;2022-09-17T02:10:07;2.22;;;1.60;;
4517;SDS011;2271;49.464;11.070;2022-09-17T02:12:45;3.05;;;1.75;;
4517;SDS011;2271;49.464;11.070;2022-09-17T02:15:16;2.65;;;1.70;;
4517;SDS011;2271;49.464;11.070;2022-09-17T02:17:54;3.60;;;1.80;;
4517;SDS011;2271;49.464;11.070;2022-09-17T02:20:26;2.10;;;1.60;;
4517;SDS011;2271;49.464;11.070;2022-09-17T02:23:00;3.72;;;1.65;;
4517;SDS011;2271;49.464;11.070;2022-09-17T02:28:10;4.15;;;1.77;;
4517;SDS011;2271;49.464;11.070;2022-09-17T02:30:42;5.32;;;2.05;;
4517;SDS011;2271;49.464;11.070;2022-09-17T02:33:08;3.60;;;1.33;;
4517;SDS011;2271;49.464;11.070;2022-09-17T02:35:38;5.90;;;1.80;;
4517;SDS011;2271;49.464;11.070;2022-09-17T02:38:04;4.53;;;1.60;;
4517;SDS011;2271;49.464;11.070;2022-09-17T02:40:30;1.63;;;1.35;;
4517;SDS011;2271;49.464;11.070;2022-09-17T02:48:32;4.65;;;1.95;;
4517;SDS011;2271;49.464;11.070;2022-09-17T02:51:28;2.72;;;1.85;;
4517;SDS011;2271;49.464;11.070;2022-09-17T02:57:01;3.20;;;1.63;;
4517;SDS011;2271;49.464;11.070;2022-09-17T03:02:30;2.50;;;1.60;;
4517;SDS011;2271;49.464;11.070;2022-09-17T03:05:01;3.63;;;1.48;;
4517;SDS011;2271;49.464;11.070;2022-09-17T03:07:28;2.67;;;1.60;;
4517;SDS011;2271;49.464;11.070;2022-09-17T03:09:54;2.85;;;1.40;;
4517;SDS011;2271;49.464;11.070;2022-09-17T03:12:19;10.05;;;2.70;;
4517;SDS011;2271;49.464;11.070;2022-09-17T03:14:46;6.70;;;2.08;;
4517;SDS011;2271;49.464;11.070;2022-09-17T03:17:11;2.65;;;1.58;;
4517;SDS011;2271;49.464;11.070;2022-09-17T03:19:38;2.35;;;2.05;;
4517;SDS011;2271;49.464;11.070;2022-09-17T03:22:04;2.30;;;1.60;;
4517;SDS011;2271;49.464;11.070;2022-09-17T03:24:29;4.35;;;1.70;;
4517;SDS011;2271;49.464;11.070;2022-09-17T03:26:55;5.07;;;1.83;;
4517;SDS011;2271;49.464;11.070;2022-09-17T03:29:21;5.47;;;1.58;;
4517;SDS011;2271;49.464;11.070;2022-09-17T03:31:46;4.15;;;2.10;;
4517;SDS011;2271;49.464;11.070;2022-09-17T03:34:12;7.35;;;2.22;;
4517;SDS011;2271;49.464;11.070;2022-09-17T03:36:37;3.53;;;2.13;;
4517;SDS011;2271;49.464;11.070;2022-09-17T03:39:03;4.07;;;1.90;;
4517;SDS011;2271;49.464;11.070;2022-09-17T03:41:29;4.38;;;2.20;;
4517;SDS011;2271;49.464;11.070;2022-09-17T03:43:55;1.70;;;1.50;;
4517;SDS011;2271;49.464;11.070;2022-09-17T03:46:20;11.50;;;1.83;;
4517;SDS011;2271;49.464;11.070;2022-09-17T03:48:46;4.03;;;1.90;;
4517;SDS011;2271;49.464;11.070;2022-09-17T03:51:12;4.33;;;1.47;;
4517;SDS011;2271;49.464;11.070;2022-09-17T03:53:37;4.40;;;1.45;;
4517;SDS011;2271;49.464;11.070;2022-09-17T03:56:04;6.13;;;1.60;;
4517;SDS011;2271;49.464;11.070;2022-09-17T03:58:30;5.20;;;1.75;;
4517;SDS011;2271;49.464;11.070;2022-09-17T04:00:57;6.60;;;1.73;;
4517;SDS011;2271;49.464;11.070;2022-09-17T04:03:23;2.85;;;1.38;;
4517;SDS011;2271;49.464;11.070;2022-09-17T04:05:49;12.93;;;1.83;;
4517;SDS011;2271;49.464;11.070;2022-09-17T04:08:15;3.53;;;1.80;;
4517;SDS011;2271;49.464;11.070;2022-09-17T04:10:42;2.10;;;1.60;;
4517;SDS011;2271;49.464;11.070;2022-09-17T04:13:08;7.78;;;1.50;;
4517;SDS011;2271;49.464;11.070;2022-09-17T04:15:34;10.00;;;2.13;;
4517;SDS011;2271;49.464;11.070;2022-09-17T04:18:00;3.53;;;1.10;;
4517;SDS011;2271;49.464;11.070;2022-09-17T04:20:26;3.60;;;1.48;;
4517;SDS011;2271;49.464;11.070;2022-09-17T04:22:51;6.35;;;1.33;;
4517;SDS011;2271;49.464;11.070;2022-09-17T04:25:17;5.97;;;1.50;;
4517;SDS011;2271;49.464;11.070;2022-09-17T04:27:43;1.58;;;1.35;;
4517;SDS011;2271;49.464;11.070;2022-09-17T04:30:09;3.45;;;1.10;;
4517;SDS011;2271;49.464;11.070;2022-09-17T04:32:36;3.63;;;1.20;;
4517;SDS011;2271;49.464;11.070;2022-09-17T04:35:01;2.53;;;1.10;;
4517;SDS011;2271;49.464;11.070;2022-09-17T04:37:27;1.60;;;0.93;;
4517;SDS011;2271;49.464;11.070;2022-09-17T04:39:53;4.95;;;1.55;;
4517;SDS011;2271;49.464;11.070;2022-09-17T04:42:18;2.97;;;1.10;;
4517;SDS011;2271;49.464;11.070;2022-09-17T04:44:44;5.30;;;1.40;;
4517;SDS011;2271;49.464;11.070;2022-09-17T04:47:10;2.72;;;1.20;;
4517;SDS011;2271;49.464;11.070;2022-09-17T04:49:35;1.90;;;1.10;;
4517;SDS011;2271;49.464;11.070;2022-09-17T04:52:01;4.70;;;1.55;;
4517;SDS011;2271;49.464;11.070;2022-09-17T04:54:26;5.60;;;1.50;;
4517;SDS011;2271;49.464;11.070;2022-09-17T04:56:52;4.93;;;2.15;;
4517;SDS011;2271;49.464;11.070;2022-09-17T04:59:18;4.25;;;1.05;;
4517;SDS011;2271;49.464;11.070;2022-09-17T05:01:43;5.13;;;1.42;;
4517;SDS011;2271;49.464;11.070;2022-09-17T05:04:09;6.88;;;1.02;;
4517;SDS011;2271;49.464;11.070;2022-09-17T05:06:35;4.35;;;1.30;;
4517;SDS011;2271;49.464;11.070;2022-09-17T05:09:01;1.33;;;1.25;;
4517;SDS011;2271;49.464;11.070;2022-09-17T05:11:27;6.22;;;1.20;;
4517;SDS011;2271;49.464;11.070;2022-09-17T05:13:53;3.08;;;1.52;;
4517;SDS011;2271;49.464;11.070;2022-09-17T05:16:20;2.95;;;0.93;;
4517;SDS011;2271;49.464;11.070;2022-09-17T05:18:45;3.22;;;1.08;;
4517;SDS011;2271;49.464;11.070;2022-09-17T05:21:12;2.47;;;1.00;;
4517;SDS011;2271;49.464;11.070;2022-09-17T05:23:38;2.35;;;1.15;;
4517;SDS011;2271;49.464;11.070;2022-09-17T05:26:04;2.78;;;1.05;;
4517;SDS011;2271;49.464;11.070;2022-09-17T05:28:30;2.10;;;1.00;;
4517;SDS011;2271;49.464;11.070;2022-09-17T05:30:58;3.13;;;1.33;;
4517;SDS011;2271;49.464;11.070;2022-09-17T05:33:24;2.13;;;1.02;;
4517;SDS011;2271;49.464;11.070;2022-09-17T05:35:50;2.33;;;2.03;;
4517;SDS011;2271;49.464;11.070;2022-09-17T05:38:16;6.47;;;1.45;;
4517;SDS011;2271;49.464;11.070;2022-09-17T05:40:43;5.57;;;1.10;;
4517;SDS011;2271;49.464;11.070;2022-09-17T05:43:13;2.72;;;0.77;;
4517;SDS011;2271;49.464;11.070;2022-09-17T05:45:39;6.15;;;1.00;;
4517;SDS011;2271;49.464;11.070;2022-09-17T05:48:05;6.28;;;1.00;;
4517;SDS011;2271;49.464;11.070;2022-09-17T05:50:33;2.15;;;0.73;;
4517;SDS011;2271;49.464;11.070;2022-09-17T05:53:03;1.08;;;0.77;;
4517;SDS011;2271;49.464;11.070;2022-09-17T05:55:30;7.40;;;1.20;;
4517;SDS011;2271;49.464;11.070;2022-09-17T05:57:56;0.90;;;0.70;;
4517;SDS011;2271;49.464;11.070;2022-09-17T06:00:22;5.50;;;0.98;;
4517;SDS011;2271;49.464;11.070;2022-09-17T06:02:53;1.52;;;0.60;;
4517;SDS011;2271;49.464;11.070;2022-09-17T06:05:19;2.35;;;0.70;;
4517;SDS011;2271;49.464;11.070;2022-09-17T06:07:45;1.48;;;0.90;;
4517;SDS011;2271;49.464;11.070;2022-09-17T06:10:11;3.77;;;1.13;;
4517;SDS011;2271;49.464;11.070;2022-09-17T06:12:36;2.40;;;0.80;;
4517;SDS011;2271;49.464;11.070;2022-09-17T06:15:02;1.60;;;0.80;;
4517;SDS011;2271;49.464;11.070;2022-09-17T06:17:31;3.08;;;0.63;;
4517;SDS011;2271;49.464;11.070;2022-09-17T06:19:58;3.35;;;1.02;;
4517;SDS011;2271;49.464;11.070;2022-09-17T06:22:23;2.00;;;0.75;;
4517;SDS011;2271;49.464;11.070;2022-09-17T06:24:49;1.40;;;0.70;;
4517;SDS011;2271;49.464;11.070;2022-09-17T06:27:15;1.63;;;0.60;;
4517;SDS011;2271;49.464;11.070;2022-09-17T06:29:40;3.75;;;0.90;;
4517;SDS011;2271;49.464;11.070;2022-09-17T06:32:09;3.23;;;0.70;;
4517;SDS011;2271;49.464;11.070;2022-09-17T06:34:37;1.60;;;0.80;;
4517;SDS011;2271;49.464;11.070;2022-09-17T06:37:05;0.68;;;0.68;;
4517;SDS011;2271;49.464;11.070;2022-09-17T06:39:31;1.40;;;0.70;;
4517;SDS011;2271;49.464;11.070;2022-09-17T06:41:57;2.80;;;0.70;;
4517;SDS011;2271;49.464;11.070;2022-09-17T06:44:23;5.07;;;2.05;;
4517;SDS011;2271;49.464;11.070;2022-09-17T06:46:48;1.95;;;0.73;;
4517;SDS011;2271;49.464;11.070;2022-09-17T06:49:15;1.33;;;0.75;;
4517;SDS011;2271;49.464;11.070;2022-09-17T06:51:42;1.85;;;0.80;;
4517;SDS011;2271;49.464;11.070;2022-09-17T06:54:08;1.75;;;0.88;;
4517;SDS011;2271;49.464;11.070;2022-09-17T06:56:33;2.00;;;0.80;;
4517;SDS011;2271;49.464;11.070;2022-09-17T06:58:59;1.80;;;0.80;;
4517;SDS011;2271;49.464;11.070;2022-09-17T07:01:25;1.08;;;0.65;;
4517;SDS011;2271;49.464;11.070;2022-09-17T07:03:51;3.35;;;1.25;;
4517;SDS011;2271;49.464;11.070;2022-09-17T07:06:16;2.55;;;1.00;;
4517;SDS011;2271;49.464;11.070;2022-09-17T07:08:42;3.90;;;1.17;;
4517;SDS011;2271;49.464;11.070;2022-09-17T07:11:08;4.95;;;0.90;;
4517;SDS011;2271;49.464;11.070;2022-09-17T07:13:33;1.80;;;0.65;;
4517;SDS011;2271;49.464;11.070;2022-09-17T07:16:00;2.63;;;0.93;;
4517;SDS011;2271;49.464;11.070;2022-09-17T07:18:27;2.63;;;0.90;;
4517;SDS011;2271;49.464;11.070;2022-09-17T07:20:56;2.40;;;0.90;;
4517;SDS011;2271;49.464;11.070;2022-09-17T07:23:24;2.35;;;0.82;;
4517;SDS011;2271;49.464;11.070;2022-09-17T07:25:56;2.57;;;1.33;;
4517;SDS011;2271;49.464;11.070;2022-09-17T07:28:23;2.38;;;0.90;;
4517;SDS011;2271;49.464;11.070;2022-09-17T07:30:50;1.30;;;0.97;;
4517;SDS011;2271;49.464;11.070;2022-09-17T07:33:17;3.20;;;1.50;;
4517;SDS011;2271;49.464;11.070;2022-09-17T07:38:22;2.47;;;1.10;;
4517;SDS011;2271;49.464;11.070;2022-09-17T07:40:52;1.95;;;0.93;;
4517;SDS011;2271;49.464;11.070;2022-09-17T07:43:25;1.30;;;1.20;;
4517;SDS011;2271;49.464;11.070;2022-09-17T07:45:52;3.95;;;1.23;;
4517;SDS011;2271;49.464;11.070;2022-09-17T07:48:19;1.25;;;1.15;;
4517;SDS011;2271;49.464;11.070;2022-09-17T07:50:45;3.70;;;1.40;;
4517;SDS011;2271;49.464;11.070;2022-09-17T07:53:11;3.35;;;1.17;;
4517;SDS011;2271;49.464;11.070;2022-09-17T07:55:37;4.03;;;1.25;;
4517;SDS011;2271;49.464;11.070;2022-09-17T07:58:02;4.55;;;1.50;;
4517;SDS011;2271;49.464;11.070;2022-09-17T08:00:28;3.17;;;1.55;;
4517;SDS011;2271;49.464;11.070;2022-09-17T08:02:54;4.68;;;1.67;;
4517;SDS011;2271;49.464;11.070;2022-09-17T08:05:20;3.05;;;1.58;;
4517;SDS011;2271;49.464;11.070;2022-09-17T08:07:50;4.93;;;1.90;;
4517;SDS011;2271;49.464;11.070;2022-09-17T08:10:16;2.72;;;1.30;;
4517;SDS011;2271;49.464;11.070;2022-09-17T08:12:46;5.70;;;2.17;;
4517;SDS011;2271;49.464;11.070;2022-09-17T08:15:12;4.20;;;1.80;;
4517;SDS011;2271;49.464;11.070;2022-09-17T08:17:41;4.57;;;1.70;;
4517;SDS011;2271;49.464;11.070;2022-09-17T08:20:08;4.00;;;1.92;;
4517;SDS011;2271;49.464;11.070;2022-09-17T08:22:34;4.15;;;1.60;;
4517;SDS011;2271;49.464;11.070;2022-09-17T08:24:59;7.25;;;1.30;;
4517;SDS011;2271;49.464;11.070;2022-09-17T08:27:28;7.38;;;1.58;;
4517;SDS011;2271;49.464;11.070;2022-09-17T08:29:55;5.07;;;1.60;;
4517;SDS011;2271;49.464;11.070;2022-09-17T08:32:20;3.60;;;1.50;;
4517;SDS011;2271;49.464;11.070;2022-09-17T08:34:46;6.10;;;2.13;;
4517;SDS011;2271;49.464;11.070;2022-09-17T08:37:11;6.82;;;1.70;;
4517;SDS011;2271;49.464;11.070;2022-09-17T08:39:37;2.00;;;1.52;;
4517;SDS011;2271;49.464;11.070;2022-09-17T08:44:39;4.18;;;1.60;;
4517;SDS011;2271;49.464;11.070;2022-09-17T08:55:12;1.52;;;1.33;;
4517;SDS011;2271;49.464;11.070;2022-09-17T09:03:24;9.55;;;2.05;;
4517;SDS011;2271;49.464;11.070;2022-09-17T09:05:54;4.10;;;1.70;;
4517;SDS011;2271;49.464;11.070;2022-09-17T09:08:36;4.93;;;2.00;;
4517;SDS011;2271;49.464;11.070;2022-09-17T09:11:11;10.07;;;1.90;;
4517;SDS011;2271;49.464;11.070;2022-09-17T09:13:41;6.63;;;1.80;;
4517;SDS011;2271;49.464;11.070;2022-09-17T09:16:23;3.15;;;1.48;;
4517;SDS011;2271;49.464;11.070;2022-09-17T09:18:54;6.53;;;1.95;;
4517;SDS011;2271;49.464;11.070;2022-09-17T09:21:27;5.53;;;1.65;;
4517;SDS011;2271;49.464;11.070;2022-09-17T09:24:03;7.45;;;2.00;;
4517;SDS011;2271;49.464;11.070;2022-09-17T09:26:47;3.28;;;1.70;;
4517;SDS011;2271;49.464;11.070;2022-09-17T09:31:53;4.03;;;1.33;;
4517;SDS011;2271;49.464;11.070;2022-09-17T09:34:28;2.95;;;1.17;;
4517;SDS011;2271;49.464;11.070;2022-09-17T09:39:40;4.47;;;1.42;;
4517;SDS011;2271;49.464;11.070;2022-09-17T09:42:10;10.00;;;2.05;;
4517;SDS011;2271;49.464;11.070;2022-09-17T09:44:53;5.93;;;1.70;;
4517;SDS011;2271;49.464;11.070;2022-09-17T09:50:15;10.00;;;2.65;;
4517;SDS011;2271;49.464;11.070;2022-09-17T09:53:13;4.82;;;1.48;;
4517;SDS011;2271;49.464;11.070;2022-09-17T09:58:43;6.22;;;1.98;;
4517;SDS011;2271;49.464;11.070;2022-09-17T10:01:12;9.52;;;1.70;;
4517;SDS011;2271;49.464;11.070;2022-09-17T10:03:40;6.90;;;1.65;;
4517;SDS011;2271;49.464;11.070;2022-09-17T10:06:10;4.30;;;1.65;;
4517;SDS011;2271;49.464;11.070;2022-09-17T10:08:38;5.78;;;1.67;;
4517;SDS011;2271;49.464;11.070;2022-09-17T10:13:37;4.18;;;1.55;;
4517;SDS011;2271;49.464;11.070;2022-09-17T10:16:26;9.10;;;3.10;;
4517;SDS011;2271;49.464;11.070;2022-09-17T10:23:55;2.38;;;1.48;;
4517;SDS011;2271;49.464;11.070;2022-09-17T10:26:21;9.93;;;2.63;;
4517;SDS011;2271;49.464;11.070;2022-09-17T10:28:57;7.15;;;2.00;;
4517;SDS011;2271;49.464;11.070;2022-09-17T10:31:26;3.95;;;1.60;;
4517;SDS011;2271;49.464;11.070;2022-09-17T10:36:43;3.50;;;1.27;;
4517;SDS011;2271;49.464;11.070;2022-09-17T10:42:00;4.60;;;2.22;;
4517;SDS011;2271;49.464;11.070;2022-09-17T10:44:35;5.78;;;1.55;;
4517;SDS011;2271;49.464;11.070;2022-09-17T10:47:12;8.18;;;1.70;;
4517;SDS011;2271;49.464;11.070;2022-09-17T10:49:43;5.18;;;2.08;;
4517;SDS011;2271;49.464;11.070;2022-09-17T10:54:55;5.72;;;1.30;;
4517;SDS011;2271;49.464;11.070;2022-09-17T11:00:19;6.65;;;1.98;;
4517;SDS011;2271;49.464;11.070;2022-09-17T11:08:37;8.30;;;2.00;;
4517;SDS011;2271;49.464;11.070;2022-09-17T11:14:13;4.13;;;1.60;;
4517;SDS011;2271;49.464;11.070;2022-09-17T11:16:50;6.05;;;2.42;;
4517;SDS011;2271;49.464;11.070;2022-09-17T11:19:42;4.68;;;1.58;;
4517;SDS011;2271;49.464;11.070;2022-09-17T11:30:16;5.00;;;1.42;;
4517;SDS011;2271;49.464;11.070;2022-09-17T11:41:11;4.05;;;1.27;;
4517;SDS011;2271;49.464;11.070;2022-09-17T11:52:31;4.57;;;1.25;;
4517;SDS011;2271;49.464;11.070;2022-09-17T11:57:46;6.30;;;2.08;;
4517;SDS011;2271;49.464;11.070;2022-09-17T12:00:16;4.57;;;1.77;;
4517;SDS011;2271;49.464;11.070;2022-09-17T12:02:49;8.73;;;1.63;;
4517;SDS011;2271;49.464;11.070;2022-09-17T12:05:55;4.38;;;1.63;;
4517;SDS011;2271;49.464;11.070;2022-09-17T12:08:32;7.18;;;1.48;;
4517;SDS011;2271;49.464;11.070;2022-09-17T12:11:22;4.03;;;1.70;;
4517;SDS011;2271;49.464;11.070;2022-09-17T12:13:56;4.50;;;1.38;;
4517;SDS011;2271;49.464;11.070;2022-09-17T12:16:27;3.45;;;1.52;;
4517;SDS011;2271;49.464;11.070;2022-09-17T12:21:36;3.47;;;1.20;;
4517;SDS011;2271;49.464;11.070;2022-09-17T12:24:22;5.25;;;1.55;;
4517;SDS011;2271;49.464;11.070;2022-09-17T12:35:03;7.97;;;1.98;;
4517;SDS011;2271;49.464;11.070;2022-09-17T13:02:40;2.08;;;1.40;;
4517;SDS011;2271;49.464;11.070;2022-09-17T13:07:58;1.63;;;1.23;;
4517;SDS011;2271;49.464;11.070;2022-09-17T13:13:18;3.03;;;1.23;;
4517;SDS011;2271;49.464;11.070;2022-09-17T13:18:54;2.85;;;2.15;;
4517;SDS011;2271;49.464;11.070;2022-09-17T13:21:47;3.00;;;1.27;;
4517;SDS011;2271;49.464;11.070;2022-09-17T13:24:20;2.78;;;1.38;;
4517;SDS011;2271;49.464;11.070;2022-09-17T13:26:49;4.97;;;1.38;;
4517;SDS011;2271;49.464;11.070;2022-09-17T13:40:30;1.40;;;0.30;;
4517;SDS011;2271;49.464;11.070;2022-09-17T13:42:57;1.98;;;0.95;;
4517;SDS011;2271;49.464;11.070;2022-09-17T13:46:04;0.30;;;0.30;;
4517;SDS011;2271;49.464;11.070;2022-09-17T13:48:23;1.42;;;0.47;;
4517;SDS011;2271;49.464;11.070;2022-09-17T13:50:52;1.25;;;0.52;;
4517;SDS011;2271;49.464;11.070;2022-09-17T13:53:19;0.52;;;0.40;;
4517;SDS011;2271;49.464;11.070;2022-09-17T13:55:51;6.07;;;0.70;;
4517;SDS011;2271;49.464;11.070;2022-09-17T13:58:23;1.50;;;0.60;;
4517;SDS011;2271;49.464;11.070;2022-09-17T14:00:58;1.70;;;0.80;;
4517;SDS011;2271;49.464;11.070;2022-09-17T14:19:00;1.13;;;0.70;;
4517;SDS011;2271;49.464;11.070;2022-09-17T14:24:22;1.27;;;0.70;;
4517;SDS011;2271;49.464;11.070;2022-09-17T14:34:51;0.73;;;0.70;;
4517;SDS011;2271;49.464;11.070;2022-09-17T14:37:18;1.20;;;0.88;;
4517;SDS011;2271;49.464;11.070;2022-09-17T14:39:46;1.40;;;0.70;;
4517;SDS011;2271;49.464;11.070;2022-09-17T14:42:14;1.33;;;0.80;;
4517;SDS011;2271;49.464;11.070;2022-09-17T14:44:50;0.80;;;0.80;;
4517;SDS011;2271;49.464;11.070;2022-09-17T14:47:24;1.80;;;1.10;;
4517;SDS011;2271;49.464;11.070;2022-09-17T14:49:51;3.65;;;1.10;;
4517;SDS011;2271;49.464;11.070;2022-09-17T14:52:27;3.13;;;1.00;;
4517;SDS011;2271;49.464;11.070;2022-09-17T14:57:56;3.50;;;1.40;;
4517;SDS011;2271;49.464;11.070;2022-09-17T15:00:36;3.40;;;1.30;;
4517;SDS011;2271;49.464;11.070;2022-09-17T15:03:02;2.65;;;1.30;;
4517;SDS011;2271;49.464;11.070;2022-09-17T15:05:29;4.97;;;1.67;;
4517;SDS011;2271;49.464;11.070;2022-09-17T15:08:06;4.53;;;1.40;;
4517;SDS011;2271;49.464;11.070;2022-09-17T15:13:30;2.95;;;1.60;;
4517;SDS011;2271;49.464;11.070;2022-09-17T15:16:09;3.25;;;1.50;;
4517;SDS011;2271;49.464;11.070;2022-09-17T15:26:51;4.72;;;1.42;;
4517;SDS011;2271;49.464;11.070;2022-09-17T15:29:20;2.95;;;1.05;;
4517;SDS011;2271;49.464;11.070;2022-09-17T15:31:49;3.05;;;1.20;;
4517;SDS011;2271;49.464;11.070;2022-09-17T15:34:14;1.95;;;1.10;;
4517;SDS011;2271;49.464;11.070;2022-09-17T15:36:41;3.03;;;1.73;;
4517;SDS011;2271;49.464;11.070;2022-09-17T15:39:35;4.22;;;1.10;;
4517;SDS011;2271;49.464;11.070;2022-09-17T15:42:03;1.85;;;1.20;;
4517;SDS011;2271;49.464;11.070;2022-09-17T15:44:29;3.00;;;1.77;;
4517;SDS011;2271;49.464;11.070;2022-09-17T15:47:20;2.15;;;1.10;;
4517;SDS011;2271;49.464;11.070;2022-09-17T15:50:32;4.63;;;1.83;;
4517;SDS011;2271;49.464;11.070;2022-09-17T15:53:19;4.05;;;1.23;;
4517;SDS011;2271;49.464;11.070;2022-09-17T15:56:00;2.08;;;1.00;;
4517;SDS011;2271;49.464;11.070;2022-09-17T16:08:42;1.05;;;0.77;;
4517;SDS011;2271;49.464;11.070;2022-09-17T16:11:08;1.38;;;0.90;;
4517;SDS011;2271;49.464;11.070;2022-09-17T16:13:33;2.88;;;1.05;;
4517;SDS011;2271;49.464;11.070;2022-09-17T16:15:59;2.03;;;0.90;;
4517;SDS011;2271;49.464;11.070;2022-09-17T16:18:25;6.30;;;0.90;;
4517;SDS011;2271;49.464;11.070;2022-09-17T16:20:51;1.98;;;1.10;;
4517;SDS011;2271;49.464;11.070;2022-09-17T16:23:17;2.20;;;1.02;;
4517;SDS011;2271;49.464;11.070;2022-09-17T16:25:42;1.88;;;0.88;;
4517;SDS011;2271;49.464;11.070;2022-09-17T16:28:09;3.75;;;1.05;;
4517;SDS011;2271;49.464;11.070;2022-09-17T16:30:45;2.30;;;1.00;;
4517;SDS011;2271;49.464;11.070;2022-09-17T16:33:12;2.67;;;1.20;;
4517;SDS011;2271;49.464;11.070;2022-09-17T16:35:39;3.58;;;0.90;;
4517;SDS011;2271;49.464;11.070;2022-09-17T16:38:06;4.85;;;1.67;;
4517;SDS011;2271;49.464;11.070;2022-09-17T16:40:32;1.73;;;1.00;;
4517;SDS011;2271;49.464;11.070;2022-09-17T16:43:01;1.85;;;1.02;;
4517;SDS011;2271;49.464;11.070;2022-09-17T16:45:27;1.27;;;0.80;;
4517;SDS011;2271;49.464;11.070;2022-09-17T16:47:54;2.45;;;0.90;;
4517;SDS011;2271;49.464;11.070;2022-09-17T16:50:20;1.67;;;1.05;;
4517;SDS011;2271;49.464;11.070;2022-09-17T16:52:45;5.78;;;0.90;;
4517;SDS011;2271;49.464;11.070;2022-09-17T16:55:12;0.95;;;0.80;;
4517;SDS011;2271;49.464;11.070;2022-09-17T16:57:40;2.97;;;1.00;;
4517;SDS011;2271;49.464;11.070;2022-09-17T17:00:06;2.90;;;1.10;;
4517;SDS011;2271;49.464;11.070;2022-09-17T17:02:39;0.75;;;0.68;;
4517;SDS011;2271;49.464;11.070;2022-09-17T17:05:05;1.17;;;0.70;;
4517;SDS011;2271;49.464;11.070;2022-09-17T17:07:31;1.52;;;0.85;;
4517;SDS011;2271;49.464;11.070;2022-09-17T17:09:59;2.95;;;1.42;;
4517;SDS011;2271;49.464;11.070;2022-09-17T17:12:25;2.35;;;0.88;;
4517;SDS011;2271;49.464;11.070;2022-09-17T17:14:51;4.70;;;1.20;;
4517;SDS011;2271;49.464;11.070;2022-09-17T17:17:18;2.08;;;1.05;;
4517;SDS011;2271;49.464;11.070;2022-09-17T17:19:44;1.10;;;1.00;;
4517;SDS011;2271;49.464;11.070;2022-09-17T17:22:11;3.08;;;1.13;;
4517;SDS011;2271;49.464;11.070;2022-09-17T17:24:37;1.40;;;0.70;;
4517;SDS011;2271;49.464;11.070;2022-09-17T17:27:03;1.33;;;0.70;;
4517;SDS011;2271;49.464;11.070;2022-09-17T17:29:29;0.60;;;0.60;;
4517;SDS011;2271;49.464;11.070;2022-09-17T17:31:54;2.53;;;0.90;;
4517;SDS011;2271;49.464;11.070;2022-09-17T17:34:20;1.48;;;0.60;;
4517;SDS011;2271;49.464;11.070;2022-09-17T17:36:49;1.55;;;0.75;;
4517;SDS011;2271;49.464;11.070;2022-09-17T17:39:14;2.22;;;0.70;;
4517;SDS011;2271;49.464;11.070;2022-09-17T17:41:40;3.35;;;1.00;;
4517;SDS011;2271;49.464;11.070;2022-09-17T17:44:07;1.98;;;0.77;;
4517;SDS011;2271;49.464;11.070;2022-09-17T17:46:36;2.38;;;1.00;;
4517;SDS011;2271;49.464;11.070;2022-09-17T17:49:03;2.13;;;0.80;;
4517;SDS011;2271;49.464;11.070;2022-09-17T17:51:29;1.83;;;0.90;;
4517;SDS011;2271;49.464;11.070;2022-09-17T17:53:55;0.70;;;0.70;;
4517;SDS011;2271;49.464;11.070;2022-09-17T17:56:21;2.08;;;1.05;;
4517;SDS011;2271;49.464;11.070;2022-09-17T17:58:47;3.72;;;1.42;;
4517;SDS011;2271;49.464;11.070;2022-09-17T18:01:19;1.73;;;1.40;;
4517;SDS011;2271;49.464;11.070;2022-09-17T18:03:46;5.88;;;2.58;;
4517;SDS011;2271;49.464;11.070;2022-09-17T18:06:12;14.27;;;3.95;;
4517;SDS011;2271;49.464;11.070;2022-09-17T18:08:39;2.92;;;1.63;;
4517;SDS011;2271;49.464;11.070;2022-09-17T18:11:06;1.40;;;1.10;;
4517;SDS011;2271;49.464;11.070;2022-09-17T18:13:34;2.08;;;0.90;;
4517;SDS011;2271;49.464;11.070;2022-09-17T18:16:01;2.90;;;1.10;;
4517;SDS011;2271;49.464;11.070;2022-09-17T18:18:32;2.42;;;0.90;;
4517;SDS011;2271;49.464;11.070;2022-09-17T18:21:03;1.40;;;0.98;;
4517;SDS011;2271;49.464;11.070;2022-09-17T18:23:31;5.25;;;1.40;;
4517;SDS011;2271;49.464;11.070;2022-09-17T18:25:59;1.30;;;0.90;;
4517;SDS011;2271;49.464;11.070;2022-09-17T18:28:26;2.65;;;1.65;;
4517;SDS011;2271;49.464;11.070;2022-09-17T18:30:54;3.50;;;1.23;;
4517;SDS011;2271;49.464;11.070;2022-09-17T18:33:24;2.05;;;1.15;;
4517;SDS011;2271;49.464;11.070;2022-09-17T18:35:51;5.25;;;1.63;;
4517;SDS011;2271;49.464;11.070;2022-09-17T18:38:21;6.10;;;1.80;;
4517;SDS011;2271;49.464;11.070;2022-09-17T18:40:48;3.72;;;2.33;;
4517;SDS011;2271;49.464;11.070;2022-09-17T18:43:14;4.85;;;1.55;;
4517;SDS011;2271;49.464;11.070;2022-09-17T18:45:39;2.95;;;0.90;;
4517;SDS011;2271;49.464;11.070;2022-09-17T18:48:05;5.53;;;1.20;;
4517;SDS011;2271;49.464;11.070;2022-09-17T18:50:32;3.47;;;1.33;;
4517;SDS011;2271;49.464;11.070;2022-09-17T18:52:58;4.75;;;1.85;;
4517;SDS011;2271;49.464;11.070;2022-09-17T18:55:24;7.95;;;1.15;;
4517;SDS011;2271;49.464;11.070;2022-09-17T18:57:50;4.28;;;1.90;;
4517;SDS011;2271;49.464;11.070;2022-09-17T19:00:19;5.18;;;1.50;;
4517;SDS011;2271;49.464;11.070;2022-09-17T19:02:49;3.47;;;1.45;;
4517;SDS011;2271;49.464;11.070;2022-09-17T19:05:15;9.32;;;2.35;;
4517;SDS011;2271;49.464;11.070;2022-09-17T19:07:44;3.95;;;1.30;;
4517;SDS011;2271;49.464;11.070;2022-09-17T19:10:10;2.92;;;1.65;;